Time;durP1;ratioP1;P1;durP2;ratioP2;P2;SDS_P1;SDS_P2;PMS_P1;PMS_P2;Temp;Humidity;BMP_temperature;BMP_pressure;BME280_temperature;BME280_humidity;BME280_pressure;Samples;Min_cycle;Max_cycle;Signal;HPM_P1;HPM_P2
2023/10/18 16:07:50;;;;;;;;;;;;;;;14.98;51.95;98613.16;1088319;54;758;-80
2023/10/18 16:08:53;;;;;;;;;;;;;;;14.95;51.95;98613.56;1087399;47;1022;-79
2023/10/18 16:09:57;;;;;;;;;;;;;;;14.94;52.26;98612.75;1086022;47;1358;-79
2023/10/18 16:11:01;;;;;;;;;;;;;;;14.93;52.00;98615.63;1086890;54;1177;-79
2023/10/18 16:12:04;;;;;;;;;;;;;;;14.88;52.42;98613.56;1086201;54;912;-78
2023/10/18 16:13:04;;;;;;;;;;;;;;;14.81;52.61;98618.97;1085243;47;952;-79
2023/10/18 16:14:10;;;;;;;;;;;;;;;14.79;52.79;98604.91;1087257;47;1661;-79
2023/10/18 16:15:13;;;;;;;;;;;;;;;14.79;52.91;98610.28;1087400;54;1064;-80
2023/10/18 16:16:25;;;;;;;;;;;;;;;14.78;53.41;98602.41;1085807;54;1303;-81
2023/10/18 16:17:26;;;;;;;;;;;;;;;14.67;53.87;98603.84;1086940;54;1122;-79
2023/10/18 16:18:30;;;;;;;;;;;;;;;14.58;53.94;98595.16;1087262;47;1146;-80
2023/10/18 16:19:31;;;;;;;;;;;;;;;14.52;54.48;98595.94;1087644;47;995;-78
2023/10/18 16:20:34;;;;;;;;;;;;;;;14.53;54.25;98588.72;1086946;47;1353;-79
2023/10/18 16:21:35;;;;;;;;;;;;;;;14.50;54.71;98598.84;1087017;54;1872;-78
2023/10/18 16:22:38;;;;;;;;;;;;;;;14.52;54.28;98593.25;1085723;47;1032;-79
2023/10/18 16:23:41;;;;;;;;;;;;;;;14.56;53.98;98591.81;1085118;54;1171;-79
2023/10/18 16:24:47;;;;;;;;;;;;;;;14.52;54.12;98587.88;1084798;54;1533;-78
2023/10/18 16:25:48;;;;;;;;;;;;;;;14.51;54.41;98583.53;1085667;47;1396;-80
2023/10/18 16:26:58;;;;;;;;;;;;;;;14.55;54.51;98582.09;1087250;54;1083;-80
2023/10/18 16:27:59;;;;;;;;;;;;;;;14.52;54.48;98587.88;1085895;54;1157;-80
2023/10/18 16:29:05;;;;;;;;;;;;;;;14.53;54.22;98583.34;1086304;47;1130;-79
2023/10/18 16:30:11;;;;;;;;;;;;;;;14.54;54.30;98587.69;1086621;47;1070;-78
2023/10/18 16:31:15;;;;;;;;;;;;;;;14.54;54.70;98590.38;1086289;54;1492;-79
2023/10/18 16:32:17;;;;;;;;;;;;;;;14.54;54.25;98585.81;1086698;54;1110;-78
2023/10/18 16:33:21;;;;;;;;;;;;;;;14.61;54.10;98592.03;1086540;54;1074;-78
2023/10/18 16:34:22;;;;;;;;;;;;;;;14.57;54.17;98584.56;1086872;54;1321;-78
2023/10/18 16:35:25;;;;;;;;;;;;;;;14.63;54.17;98583.75;1086226;54;1299;-79
2023/10/18 16:36:26;;;;;;;;;;;;;;;14.63;54.09;98578.38;1087172;54;1052;-79
2023/10/18 16:37:50;;;;;;;;;;;;;;;14.65;54.01;98584.38;1087856;54;1431;-81
2023/10/18 16:39:27;;;;;;;;;;;;;;;;;;;;;
2023/10/18 16:42:18;;;;;;;;;;;;;;;14.72;53.72;98597.84;1088635;47;1845;-81
2023/10/18 16:43:18;;;;;;;;;;;;;;;14.76;53.70;98591.03;1088465;47;1621;-80
2023/10/18 16:44:22;;;;;;;;;;;;;;;14.78;54.07;98597.03;1088405;47;1291;-81
2023/10/18 16:45:25;;;;;;;;;;;;;;;14.82;53.69;98587.50;1088520;47;2041;-81
2023/10/18 16:46:34;;;;;;;;;;;;;;;14.84;54.12;98587.28;1088523;47;908;-80
2023/10/18 16:50:00;;;;;;;;;;;;;;;14.80;53.75;98585.03;1088384;47;1029;-80
2023/10/18 16:52:02;;;;;;;;;;;;;;;14.80;53.61;98586.88;1088044;54;1142;-81
2023/10/18 16:52:38;;;;;;;;;;;;;;;14.78;53.98;98580.91;1088392;47;940;-80
2023/10/18 16:56:47;;;;;;;;;;;;;;;14.79;53.64;98587.91;1088173;47;1055;-79
2023/10/18 16:57:51;;;;;;;;;;;;;;;14.81;53.98;98580.47;1086033;54;1277;-78
2023/10/18 16:58:56;;;;;;;;;;;;;;;14.79;53.79;98580.69;1086780;54;1171;-78
2023/10/18 16:59:57;;;;;;;;;;;;;;;14.81;53.91;98581.31;1086029;54;1539;-79
2023/10/18 17:01:00;;;;;;;;;;;;;;;14.84;53.81;98576.53;1087637;54;1119;-79
2023/10/18 17:02:13;;;;;;;;;;;;;;;14.84;53.88;98572.00;1087913;47;1862;-81
2023/10/18 17:03:16;;;;;;;;;;;;;;;14.81;53.75;98570.53;1088152;54;1043;-81
2023/10/18 17:04:17;;;;;;;;;;;;;;;14.84;54.30;98561.22;1087470;46;1103;-79
2023/10/18 17:05:21;;;;;;;;;;;;;;;14.75;54.69;98557.91;1086652;54;1020;-79
2023/10/18 17:06:22;;;;;;;;;;;;;;;14.71;54.54;98564.75;1086935;54;1040;-78
2023/10/18 17:07:25;;;;;;;;;;;;;;;14.73;54.43;98562.69;1085854;54;1265;-79
2023/10/18 17:08:26;;;;;;;;;;;;;;;14.77;54.32;98547.78;1086945;47;897;-78
2023/10/18 17:09:29;;;;;;;;;;;;;;;14.80;54.37;98557.28;1088027;54;1073;-79
2023/10/18 17:10:30;;;;;;;;;;;;;;;14.79;54.67;98566.38;1087742;47;1108;-78
2023/10/18 17:11:33;;;;;;;;;;;;;;;14.73;55.16;98548.41;1087841;54;980;-78
2023/10/18 17:12:35;;;;;;;;;;;;;;;14.58;55.65;98548.59;1086367;47;1158;-79
2023/10/18 17:13:42;;;;;;;;;;;;;;;14.57;55.58;98549.63;1085924;47;976;-79
2023/10/18 17:14:43;;;;;;;;;;;;;;;14.64;55.61;98553.97;1086610;54;1048;-78
2023/10/18 17:15:46;;;;;;;;;;;;;;;14.69;55.36;98558.75;1086103;47;1381;-79
2023/10/18 17:16:47;;;;;;;;;;;;;;;14.72;55.04;98561.03;1085474;46;1151;-79
2023/10/18 17:17:50;;;;;;;;;;;;;;;14.73;55.21;98557.31;1085695;54;1168;-79
2023/10/18 17:18:54;;;;;;;;;;;;;;;14.71;55.16;98559.38;1086301;47;1016;-78
2023/10/18 17:19:56;;;;;;;;;;;;;;;14.69;55.43;98566.81;1085271;54;1091;-79
2023/10/18 17:20:59;;;;;;;;;;;;;;;14.66;55.28;98560.00;1086585;54;1156;-79
2023/10/18 17:22:00;;;;;;;;;;;;;;;14.68;55.64;98567.84;1086790;47;1850;-79
2023/10/18 17:23:01;;;;;;;;;;;;;;;14.70;55.52;98568.47;1085965;53;1159;-78
2023/10/18 17:24:04;;;;;;;;;;;;;;;14.72;55.87;98570.94;1085063;54;1123;-79
2023/10/18 17:25:05;;;;;;;;;;;;;;;14.66;56.24;98565.38;1085402;47;1154;-79
2023/10/18 17:26:09;;;;;;;;;;;;;;;14.65;56.37;98570.91;1085721;54;1361;-79
2023/10/18 17:27:10;;;;;;;;;;;;;;;14.61;56.60;98569.69;1086297;54;1184;-80
2023/10/18 17:28:21;;;;;;;;;;;;;;;14.64;56.26;98566.59;1086521;47;1076;-80
2023/10/18 17:29:30;;;;;;;;;;;;;;;14.64;56.29;98574.66;1087388;47;1043;-80
2023/10/18 17:30:36;;;;;;;;;;;;;;;14.65;56.37;98576.28;1086807;47;1186;-79
2023/10/18 17:31:48;;;;;;;;;;;;;;;14.65;56.20;98565.53;1087319;47;1141;-80
2023/10/18 17:32:54;;;;;;;;;;;;;;;14.67;56.53;98566.19;1087259;54;1104;-81
2023/10/18 17:33:55;;;;;;;;;;;;;;;14.64;56.27;98569.28;1086965;47;1089;-80
2023/10/18 17:35:00;;;;;;;;;;;;;;;14.66;56.41;98564.50;1087210;54;1060;-80
2023/10/18 17:36:01;;;;;;;;;;;;;;;14.64;56.55;98566.59;1087739;47;1349;-79
2023/10/18 17:37:04;;;;;;;;;;;;;;;14.63;56.48;98568.44;1087671;54;1143;-79
2023/10/18 17:38:05;;;;;;;;;;;;;;;14.65;56.81;98565.53;1087761;47;1321;-79
2023/10/18 17:39:11;;;;;;;;;;;;;;;14.68;56.43;98567.03;1086755;54;1191;-79
2023/10/18 17:40:13;;;;;;;;;;;;;;;14.69;56.66;98560.63;1087846;54;1155;-78
2023/10/18 17:41:17;;;;;;;;;;;;;;;14.66;56.92;98559.13;1087008;54;1118;-80
2023/10/18 17:42:20;;;;;;;;;;;;;;;14.63;57.06;98552.31;1087405;54;1917;-78
2023/10/18 17:43:25;;;;;;;;;;;;;;;14.62;57.01;98550.66;1087535;47;1023;-80
2023/10/18 17:44:26;;;;;;;;;;;;;;;14.62;57.12;98552.53;1087269;54;1142;-80
2023/10/18 17:45:38;;;;;;;;;;;;;;;14.62;57.50;98552.53;1087196;54;1356;-79
2023/10/18 17:46:40;;;;;;;;;;;;;;;14.62;57.49;98552.53;1087249;54;1135;-80
2023/10/18 17:47:45;;;;;;;;;;;;;;;14.61;57.60;98546.31;1088322;54;1202;-79
2023/10/18 17:48:46;;;;;;;;;;;;;;;14.57;57.61;98557.69;1088012;54;1221;-78
2023/10/18 17:49:54;;;;;;;;;;;;;;;14.53;57.78;98546.53;1088168;47;1142;-80
2023/10/18 17:50:55;;;;;;;;;;;;;;;14.55;57.69;98549.03;1087969;47;1058;-80
2023/10/18 17:51:58;;;;;;;;;;;;;;;14.56;58.11;98537.19;1087936;47;1129;-78
2023/10/18 17:52:59;;;;;;;;;;;;;;;14.57;57.83;98531.63;1087873;47;1048;-80
2023/10/18 17:54:03;;;;;;;;;;;;;;;14.58;57.79;98535.13;1087879;47;1163;-80
2023/10/18 17:55:14;;;;;;;;;;;;;;;14.58;58.06;98532.44;1088188;54;1282;-78
2023/10/18 17:56:20;;;;;;;;;;;;;;;14.58;58.28;98533.28;1088074;47;1309;-80
2023/10/18 17:57:21;;;;;;;;;;;;;;;14.55;58.69;98533.69;1087783;47;1250;-79
2023/10/18 17:58:26;;;;;;;;;;;;;;;14.52;58.75;98536.78;1087882;54;1310;-81
2023/10/18 17:59:28;;;;;;;;;;;;;;;14.52;58.54;98547.53;1088211;47;1059;-77
2023/10/18 18:00:39;;;;;;;;;;;;;;;14.53;58.59;98551.91;1088193;54;1010;-79
2023/10/18 18:01:42;;;;;;;;;;;;;;;14.50;58.99;98545.06;1088287;54;1162;-80
2023/10/18 18:02:45;;;;;;;;;;;;;;;14.47;59.69;98552.72;1087881;54;1848;-79
2023/10/18 18:03:46;;;;;;;;;;;;;;;14.41;59.97;98550.84;1088139;47;1214;-79
2023/10/18 18:04:53;;;;;;;;;;;;;;;14.45;59.86;98552.91;1088297;54;1184;-79
2023/10/18 18:05:53;;;;;;;;;;;;;;;14.43;60.21;98544.25;1088302;54;1417;-79
2023/10/18 18:06:57;;;;;;;;;;;;;;;14.41;60.36;98538.25;1087854;47;1540;-78
2023/10/18 18:07:59;;;;;;;;;;;;;;;14.30;61.37;98538.88;1087650;54;1109;-79
2023/10/18 18:09:18;;;;;;;;;;;;;;;14.32;61.28;98540.31;1088143;47;997;-79
2023/10/18 18:10:24;;;;;;;;;;;;;;;14.29;62.08;98535.34;1088168;47;1028;-77
2023/10/18 18:11:30;;;;;;;;;;;;;;;14.24;61.77;98527.06;1087897;47;1051;-77
2023/10/18 18:12:30;;;;;;;;;;;;;;;14.26;62.17;98519.63;1088028;47;1012;-80
2023/10/18 18:13:35;;;;;;;;;;;;;;;14.27;62.09;98523.97;1087980;54;1022;-77
2023/10/18 18:14:37;;;;;;;;;;;;;;;14.23;62.51;98516.53;1087541;47;1090;-77
2023/10/18 18:15:40;;;;;;;;;;;;;;;14.28;62.17;98519.41;1087702;54;1238;-78
2023/10/18 18:16:45;;;;;;;;;;;;;;;14.26;62.77;98522.31;1088029;54;1245;-78
2023/10/18 18:17:46;;;;;;;;;;;;;;;14.27;62.96;98520.44;1087661;47;1012;-78
2023/10/18 18:18:51;;;;;;;;;;;;;;;14.27;62.50;98523.97;1087796;47;1051;-78
2023/10/18 18:19:52;;;;;;;;;;;;;;;14.28;63.00;98532.84;1087748;47;1102;-78
2023/10/18 18:20:55;;;;;;;;;;;;;;;14.30;62.77;98530.81;1087725;54;1174;-78
2023/10/18 18:21:56;;;;;;;;;;;;;;;14.26;63.27;98533.06;1087832;47;1214;-79
2023/10/18 18:23:14;;;;;;;;;;;;;;;14.26;62.85;98532.25;1087866;47;1848;-80
2023/10/18 18:24:15;;;;;;;;;;;;;;;14.28;62.61;98525.63;1088411;47;1003;-81
2023/10/18 18:25:19;;;;;;;;;;;;;;;14.27;62.63;98523.13;1088342;54;972;-80
2023/10/18 18:26:27;;;;;;;;;;;;;;;14.24;63.17;98526.25;1088467;47;921;-81
2023/10/18 18:27:38;;;;;;;;;;;;;;;14.13;63.72;98515.09;1088221;47;1001;-81
2023/10/18 18:28:39;;;;;;;;;;;;;;;14.13;63.65;98525.00;1088155;47;1146;-84
2023/10/18 18:29:50;;;;;;;;;;;;;;;14.08;64.04;98524.78;1088364;54;963;-78
2023/10/18 18:31:02;;;;;;;;;;;;;;;14.01;64.94;98532.84;1088487;47;947;-82
2023/10/18 18:32:09;;;;;;;;;;;;;;;14.04;63.89;98532.44;1088181;47;1458;-80
2023/10/18 18:33:34;;;;;;;;;;;;;;;14.04;64.17;98525.19;1088326;54;1228;-80
2023/10/18 18:34:39;;;;;;;;;;;;;;;14.04;64.52;98519.81;1088394;47;1117;-80
2023/10/18 18:35:49;;;;;;;;;;;;;;;14.07;64.07;98525.81;1088377;54;1420;-81
2023/10/18 18:37:05;;;;;;;;;;;;;;;14.05;64.15;98523.34;1088188;47;1478;-80
2023/10/18 18:38:09;;;;;;;;;;;;;;;14.07;64.37;98528.50;1088341;47;1442;-79
2023/10/18 18:42:27;;;;;;;;;;;;;;;14.03;64.58;98533.47;1088476;47;1443;-81
2023/10/18 18:43:42;;;;;;;;;;;;;;;13.99;64.92;98534.88;1088479;47;1100;-80
2023/10/18 18:44:53;;;;;;;;;;;;;;;14.00;64.84;98539.22;1088407;54;1126;-80
2023/10/18 18:45:58;;;;;;;;;;;;;;;14.01;64.73;98528.31;1088129;47;1437;-80
2023/10/18 18:47:05;;;;;;;;;;;;;;;14.01;64.85;98514.88;1088310;47;1476;-80
2023/10/18 18:48:12;;;;;;;;;;;;;;;13.93;66.96;98506.16;1088690;47;1312;-82
2023/10/18 18:49:21;;;;;;;;;;;;;;;13.81;67.29;98493.31;1088745;47;1200;-81
2023/10/18 18:50:22;;;;;;;;;;;;;;;13.84;66.33;98479.50;1088599;47;1485;-81
2023/10/18 18:51:23;;;;;;;;;;;;;;;13.87;66.59;98479.09;1088319;54;1063;-80
2023/10/18 18:52:26;;;;;;;;;;;;;;;13.89;66.06;98477.00;1087761;54;1027;-80
2023/10/18 18:53:27;;;;;;;;;;;;;;;13.91;65.72;98484.03;1087333;54;1659;-79
2023/10/18 18:54:30;;;;;;;;;;;;;;;13.89;66.86;98477.00;1087609;54;1271;-79
2023/10/18 18:55:30;;;;;;;;;;;;;;;13.62;67.70;98475.31;1087428;47;1405;-79
2023/10/18 18:56:34;;;;;;;;;;;;;;;13.56;67.49;98472.41;1087629;47;1195;-77
2023/10/18 18:57:35;;;;;;;;;;;;;;;13.64;67.19;98475.94;1088372;54;1047;-78
2023/10/18 18:58:38;;;;;;;;;;;;;;;13.67;67.33;98471.00;1088351;47;1408;-79
2023/10/18 18:59:39;;;;;;;;;;;;;;;13.63;67.87;98467.06;1088314;54;1412;-78
2023/10/18 19:00:43;;;;;;;;;;;;;;;13.60;68.36;98472.03;1088278;54;1076;-79
2023/10/18 19:01:45;;;;;;;;;;;;;;;13.48;68.46;98466.41;1088250;46;1473;-79
2023/10/18 19:02:51;;;;;;;;;;;;;;;13.54;67.76;98476.34;1088251;54;1873;-80
2023/10/18 19:03:54;;;;;;;;;;;;;;;13.59;67.89;98478.41;1088434;54;1020;-80
2023/10/18 19:04:57;;;;;;;;;;;;;;;13.62;68.11;98461.88;1088297;47;1506;-79
2023/10/18 19:06:02;;;;;;;;;;;;;;;13.61;67.82;98470.97;1088245;54;1666;-80
2023/10/18 19:07:07;;;;;;;;;;;;;;;13.63;67.08;98460.84;1088157;54;1050;-79
2023/10/18 19:08:08;;;;;;;;;;;;;;;13.60;67.19;98461.28;1088050;54;1263;-80
2023/10/18 19:09:09;;;;;;;;;;;;;;;13.58;67.00;98456.09;1088497;54;1113;-81
2023/10/18 19:10:14;;;;;;;;;;;;;;;13.56;67.49;98455.47;1088348;54;1065;-79
2023/10/18 19:11:18;;;;;;;;;;;;;;;13.52;67.56;98460.41;1088053;54;1143;-79
2023/10/18 19:12:21;;;;;;;;;;;;;;;13.50;67.56;98456.28;1088034;47;1008;-77
2023/10/18 19:13:22;;;;;;;;;;;;;;;13.35;68.96;98448.38;1087977;54;1320;-78
2023/10/18 19:14:25;;;;;;;;;;;;;;;13.40;67.89;98452.13;1088025;47;1038;-78
2023/10/18 19:15:27;;;;;;;;;;;;;;;13.44;67.94;98451.75;1087964;54;1375;-79
2023/10/18 19:16:30;;;;;;;;;;;;;;;13.46;68.16;98447.81;1087995;54;1214;-79
2023/10/18 19:17:31;;;;;;;;;;;;;;;13.47;68.04;98449.47;1087807;47;1122;-80
2023/10/18 19:18:35;;;;;;;;;;;;;;;13.46;67.53;98452.38;1087524;47;1000;-79
2023/10/18 19:19:39;;;;;;;;;;;;;;;13.46;67.71;98461.25;1087692;54;1059;-78
2023/10/18 19:20:45;;;;;;;;;;;;;;;13.46;67.95;98455.88;1087848;47;1107;-79
2023/10/18 19:21:46;;;;;;;;;;;;;;;13.46;67.98;98455.88;1087744;47;1127;-79
2023/10/18 19:22:51;;;;;;;;;;;;;;;13.35;68.97;98453.72;1087753;47;1882;-79
2023/10/18 19:23:51;;;;;;;;;;;;;;;13.36;68.64;98453.56;1087679;47;1048;-80
2023/10/18 19:24:55;;;;;;;;;;;;;;;13.37;68.96;98451.69;1087445;47;1078;-79
2023/10/18 19:25:55;;;;;;;;;;;;;;;13.38;68.86;98450.66;1087694;54;1345;-79
2023/10/18 19:26:58;;;;;;;;;;;;;;;13.34;69.91;98435.97;1087487;47;1080;-79
2023/10/18 19:27:59;;;;;;;;;;;;;;;13.18;70.58;98432.63;1087652;47;1167;-81
2023/10/18 19:29:03;;;;;;;;;;;;;;;13.21;70.55;98444.81;1087543;54;1040;-80
2023/10/18 19:30:04;;;;;;;;;;;;;;;13.24;70.17;98447.91;1087524;47;996;-80
2023/10/18 19:31:09;;;;;;;;;;;;;;;13.25;69.74;98433.47;1087277;54;1107;-81
2023/10/18 19:32:12;;;;;;;;;;;;;;;13.19;71.65;98428.94;1087692;47;1004;-81
2023/10/18 19:33:16;;;;;;;;;;;;;;;13.19;71.17;98428.94;1087631;54;1003;-80
2023/10/18 19:34:17;;;;;;;;;;;;;;;13.24;70.24;98436.38;1087775;47;1042;-80
2023/10/18 19:35:23;;;;;;;;;;;;;;;13.26;69.94;98429.78;1088100;47;1173;-78
2023/10/18 19:36:25;;;;;;;;;;;;;;;13.31;70.04;98428.34;1087864;47;993;-81
2023/10/18 19:37:28;;;;;;;;;;;;;;;13.32;69.98;98421.97;1087907;54;998;-81
2023/10/18 19:38:29;;;;;;;;;;;;;;;13.34;69.88;98431.44;1087940;54;870;-81
2023/10/18 19:39:32;;;;;;;;;;;;;;;13.36;70.32;98425.88;1087930;54;1040;-80
2023/10/18 19:40:33;;;;;;;;;;;;;;;13.35;71.68;98417.00;1087933;54;1027;-80
2023/10/18 19:41:36;;;;;;;;;;;;;;;13.22;73.11;98425.84;1087943;47;845;-79
2023/10/18 19:42:37;;;;;;;;;;;;;;;13.18;71.50;98419.22;1087841;54;927;-80
2023/10/18 19:43:38;;;;;;;;;;;;;;;13.21;71.18;98416.16;1087875;54;1852;-81
2023/10/18 19:44:41;;;;;;;;;;;;;;;13.22;71.19;98428.53;1087953;54;993;-78
2023/10/18 19:45:42;;;;;;;;;;;;;;;13.23;71.01;98423.97;1087939;54;1255;-78
2023/10/18 19:46:45;;;;;;;;;;;;;;;13.24;71.38;98420.28;1088249;47;1083;-78
2023/10/18 19:47:46;;;;;;;;;;;;;;;13.26;71.50;98420.91;1087926;47;958;-78
2023/10/18 19:48:50;;;;;;;;;;;;;;;13.28;72.27;98416.13;1088107;54;1059;-78
2023/10/18 19:49:51;;;;;;;;;;;;;;;13.26;72.13;98421.72;1088227;47;1069;-80
2023/10/18 19:50:57;;;;;;;;;;;;;;;13.29;71.23;98419.66;1088371;54;1116;-78
2023/10/18 19:52:08;;;;;;;;;;;;;;;13.29;72.51;98422.34;1088362;54;992;-79
2023/10/18 19:53:11;;;;;;;;;;;;;;;13.22;74.14;98419.63;1088166;54;1231;-78
2023/10/18 19:54:12;;;;;;;;;;;;;;;13.18;73.83;98416.53;1088039;47;1030;-79
2023/10/18 19:55:15;;;;;;;;;;;;;;;13.19;72.84;98418.19;1088206;54;999;-78
2023/10/18 19:56:16;;;;;;;;;;;;;;;13.18;71.79;98421.91;1088401;54;1254;-78
2023/10/18 19:57:19;;;;;;;;;;;;;;;13.21;72.36;98421.50;1088309;47;1051;-79
2023/10/18 19:58:22;;;;;;;;;;;;;;;13.18;73.81;98421.91;1088325;54;1042;-79
2023/10/18 19:59:26;;;;;;;;;;;;;;;13.18;72.33;98421.06;1088309;47;1279;-79
2023/10/18 20:00:27;;;;;;;;;;;;;;;13.15;72.42;98427.66;1088358;47;909;-80
2023/10/18 20:01:30;;;;;;;;;;;;;;;13.15;72.75;98430.34;1088523;47;1178;-81
2023/10/18 20:02:31;;;;;;;;;;;;;;;13.18;72.87;98427.28;1088654;47;1008;-81
2023/10/18 20:03:34;;;;;;;;;;;;;;;13.19;74.27;98422.72;1088614;54;1850;-82
2023/10/18 20:04:36;;;;;;;;;;;;;;;13.19;74.26;98430.78;1088732;54;1362;-81
2023/10/18 20:05:40;;;;;;;;;;;;;;;13.22;73.25;98438.44;1088431;54;1325;-80
2023/10/18 20:06:43;;;;;;;;;;;;;;;13.14;73.70;98442.09;1088471;54;1371;-81
2023/10/18 20:07:47;;;;;;;;;;;;;;;13.09;73.78;98442.69;1088400;54;1026;-82
2023/10/18 20:08:48;;;;;;;;;;;;;;;13.04;74.34;98442.50;1087721;54;1102;-82
2023/10/18 20:09:53;;;;;;;;;;;;;;;12.98;75.66;98458.53;1088478;54;1078;-80
2023/10/18 20:10:54;;;;;;;;;;;;;;;12.96;75.62;98456.06;1088433;54;943;-80
2023/10/18 20:11:58;;;;;;;;;;;;;;;12.95;75.56;98457.91;1088329;54;1146;-81
2023/10/18 20:13:01;;;;;;;;;;;;;;;12.90;75.77;98462.22;1088430;54;950;-83
2023/10/18 20:14:07;;;;;;;;;;;;;;;12.81;77.11;98458.88;1088328;54;1056;-79
2023/10/18 20:15:11;;;;;;;;;;;;;;;12.76;77.85;98453.28;1088315;54;1090;-80
2023/10/18 20:16:18;;;;;;;;;;;;;;;12.67;79.11;98451.78;1088204;46;1268;-81
2023/10/18 20:17:18;;;;;;;;;;;;;;;12.73;78.61;98453.69;1088081;47;970;-80
2023/10/18 20:18:30;;;;;;;;;;;;;;;12.74;78.11;98441.94;1088154;46;1217;-81
2023/10/18 20:19:32;;;;;;;;;;;;;;;12.77;77.84;98438.84;1088326;46;900;-80
2023/10/18 20:20:37;;;;;;;;;;;;;;;12.68;78.79;98448.06;1088242;54;987;-80
2023/10/18 20:21:46;;;;;;;;;;;;;;;12.56;80.02;98451.31;1088198;54;1056;-81
2023/10/18 20:22:50;;;;;;;;;;;;;;;12.58;79.48;98453.81;1088194;54;1031;-81
2023/10/18 20:23:52;;;;;;;;;;;;;;;12.59;79.41;98450.91;1087366;54;1850;-80
2023/10/18 20:24:56;;;;;;;;;;;;;;;12.57;79.74;98450.28;1087540;47;1399;-80
2023/10/18 20:25:57;;;;;;;;;;;;;;;12.57;79.94;98461.00;1087262;47;1348;-80
2023/10/18 20:27:03;;;;;;;;;;;;;;;12.50;80.91;98462.81;1087489;54;1167;-81
2023/10/18 20:28:04;;;;;;;;;;;;;;;12.46;80.59;98457.03;1087520;54;1154;-81
2023/10/18 20:29:08;;;;;;;;;;;;;;;12.52;80.99;98454.56;1087412;46;1222;-81
2023/10/18 20:30:09;;;;;;;;;;;;;;;12.45;81.63;98452.69;1087402;54;1395;-81
2023/10/18 20:31:10;;;;;;;;;;;;;;;12.37;82.75;98452.03;1087585;54;1150;-80
2023/10/18 20:32:14;;;;;;;;;;;;;;;12.35;82.10;98449.53;1087430;54;1466;-80
2023/10/18 20:33:15;;;;;;;;;;;;;;;12.33;82.54;98452.41;1087269;47;1011;-80
2023/10/18 20:34:19;;;;;;;;;;;;;;;12.32;82.65;98461.47;1087771;46;1135;-81
2023/10/18 20:35:20;;;;;;;;;;;;;;;12.26;83.77;98456.03;1087611;54;1091;-80
2023/10/18 20:36:23;;;;;;;;;;;;;;;12.21;84.03;98456.63;1087508;54;1527;-80
2023/10/18 20:37:27;;;;;;;;;;;;;;;12.20;84.08;98457.66;1087400;54;1146;-81
2023/10/18 20:38:30;;;;;;;;;;;;;;;12.18;83.93;98454.34;1087426;54;1104;-82
2023/10/18 20:39:31;;;;;;;;;;;;;;;12.22;83.45;98455.59;1087487;54;1040;-82
2023/10/18 20:40:36;;;;;;;;;;;;;;;12.20;83.62;98452.28;1087702;54;1051;-82
2023/10/18 20:41:38;;;;;;;;;;;;;;;12.21;83.64;98447.78;1087153;46;973;-79
2023/10/18 20:42:41;;;;;;;;;;;;;;;12.25;83.14;98449.03;1087427;54;1032;-80
2023/10/18 20:43:46;;;;;;;;;;;;;;;12.27;83.60;98455.88;1088146;47;1844;-82
2023/10/18 20:44:48;;;;;;;;;;;;;;;12.25;83.27;98449.88;1088281;47;1075;-80
2023/10/18 20:45:52;;;;;;;;;;;;;;;12.26;83.65;98456.03;1087615;47;1297;-80
2023/10/18 20:46:58;;;;;;;;;;;;;;;12.31;83.39;98453.63;1088040;54;1075;-81
2023/10/18 20:48:16;;;;;;;;;;;;;;;12.35;83.33;98446.84;1088237;54;1111;-82
2023/10/18 20:49:20;;;;;;;;;;;;;;;12.39;83.42;98445.44;1088207;54;1155;-81
2023/10/18 20:50:27;;;;;;;;;;;;;;;12.42;84.24;98444.22;1088271;47;1379;-81
2023/10/18 20:51:32;;;;;;;;;;;;;;;12.46;83.44;98440.13;1087917;54;1088;-81
2023/10/18 20:52:43;;;;;;;;;;;;;;;12.46;83.65;98437.44;1087548;54;1132;-81
2023/10/18 20:53:45;;;;;;;;;;;;;;;12.48;83.31;98444.25;1087433;47;1059;-81
2023/10/18 20:54:49;;;;;;;;;;;;;;;12.51;83.02;98437.69;1087351;46;1055;-81
2023/10/18 20:55:50;;;;;;;;;;;;;;;12.52;82.45;98443.84;1087129;54;1420;-83
2023/10/18 20:56:54;;;;;;;;;;;;;;;12.44;82.80;98458.25;1087546;54;1035;-80
2023/10/18 20:57:55;;;;;;;;;;;;;;;12.49;82.63;98445.06;1087381;47;1023;-81
2023/10/18 20:58:58;;;;;;;;;;;;;;;12.50;83.54;98429.84;1087119;47;1062;-81
2023/10/18 20:59:59;;;;;;;;;;;;;;;12.50;82.79;98432.53;1087095;47;1052;-79
2023/10/18 21:01:07;;;;;;;;;;;;;;;12.50;82.92;98429.84;1088149;54;1055;-82
2023/10/18 21:02:13;;;;;;;;;;;;;;;12.37;83.85;98436.75;1088101;54;1070;-84
2023/10/18 21:03:17;;;;;;;;;;;;;;;12.35;83.75;98443.34;1087891;46;985;-81
2023/10/18 21:04:18;;;;;;;;;;;;;;;12.39;83.57;98428.50;1087829;47;1186;-82
2023/10/18 21:11:17;;;;;;;;;;;;;;;12.43;83.92;98403.81;1086592;54;1125;-81
2023/10/18 21:12:20;;;;;;;;;;;;;;;12.44;83.36;98405.47;1087721;47;1076;-80
2023/10/18 21:13:26;;;;;;;;;;;;;;;12.44;83.36;98416.19;1087242;54;1075;-81
2023/10/18 21:14:27;;;;;;;;;;;;;;;12.44;83.10;98415.38;1087758;47;1024;-81
2023/10/18 21:15:28;;;;;;;;;;;;;;;12.45;83.01;98414.34;1087697;47;1502;-80
2023/10/18 21:16:31;;;;;;;;;;;;;;;12.45;83.40;98403.63;1087205;54;1130;-81
2023/10/18 21:17:33;;;;;;;;;;;;;;;12.46;83.11;98410.66;1087564;54;1135;-81
2023/10/18 21:18:42;;;;;;;;;;;;;;;12.44;83.57;98421.53;1088250;54;1012;-82
2023/10/18 21:19:43;;;;;;;;;;;;;;;12.48;83.21;98419.28;1087830;54;1236;-79
2023/10/18 21:20:46;;;;;;;;;;;;;;;12.47;83.17;98415.81;1087742;54;1151;-81
2023/10/18 21:21:47;;;;;;;;;;;;;;;12.48;82.93;98425.50;1087403;47;1104;-82
2023/10/18 21:22:55;;;;;;;;;;;;;;;12.46;84.42;98407.97;1087521;47;1040;-81
2023/10/18 21:24:04;;;;;;;;;;;;;;;12.45;83.74;98406.31;1087528;54;1844;-80
2023/10/18 21:25:08;;;;;;;;;;;;;;;12.48;83.62;98405.91;1087641;54;1098;-81
2023/10/18 21:26:11;;;;;;;;;;;;;;;12.41;85.70;98400.53;1087372;54;1415;-78
2023/10/18 21:27:18;;;;;;;;;;;;;;;12.32;86.73;98393.66;1087136;54;1595;-81
2023/10/18 21:28:18;;;;;;;;;;;;;;;12.37;85.40;98414.50;1086857;54;1094;-79
2023/10/18 21:29:22;;;;;;;;;;;;;;;12.40;84.49;98414.94;1086515;54;1131;-79
2023/10/18 21:30:24;;;;;;;;;;;;;;;12.41;85.57;98403.19;1086322;54;1123;-79
2023/10/18 21:31:27;;;;;;;;;;;;;;;12.35;87.28;98387.88;1086616;54;1166;-79
2023/10/18 21:32:28;;;;;;;;;;;;;;;12.35;86.86;98395.13;1086282;54;1099;-79
2023/10/18 21:33:33;;;;;;;;;;;;;;;12.35;85.85;98395.94;1086681;54;1158;-80
2023/10/18 21:34:33;;;;;;;;;;;;;;;12.35;85.96;98398.59;1086327;47;1122;-79
2023/10/18 21:35:37;;;;;;;;;;;;;;;12.36;85.79;98400.25;1086019;54;1287;-80
2023/10/18 21:36:37;;;;;;;;;;;;;;;12.33;85.73;98397.97;1086397;47;1064;-80
2023/10/18 21:37:38;;;;;;;;;;;;;;;12.37;85.51;98388.53;1086306;54;1066;-80
2023/10/18 21:38:42;;;;;;;;;;;;;;;12.40;85.88;98392.66;1087351;47;1047;-80
2023/10/18 21:39:44;;;;;;;;;;;;;;;12.43;85.38;98393.09;1087250;47;1386;-80
2023/10/18 21:40:47;;;;;;;;;;;;;;;12.45;84.94;98390.22;1087680;47;1135;-82
2023/10/18 21:41:48;;;;;;;;;;;;;;;12.49;84.49;98372.72;1086955;47;1095;-80
